sensor_id;sensor_type;location;lat;lon;timestamp;noise_LAeq;noise_LA_min;noise_LA_max;noise_LA01;noise_LA95
66747;Laerm;53658;50.742;10.864;2022-07-15T00:02:24;40.34;37.53;65.13;;
66747;Laerm;53658;50.742;10.864;2022-07-15T00:04:49;45.81;36.69;80.44;;
66747;Laerm;53658;50.742;10.864;2022-07-15T00:07:15;41.82;36.91;70.68;;
66747;Laerm;53658;50.742;10.864;2022-07-15T00:09:41;47.16;36.20;81.38;;
66747;Laerm;53658;50.742;10.864;2022-07-15T00:12:25;40.23;37.52;63.54;;
66747;Laerm;53658;50.742;10.864;2022-07-15T00:14:51;40.35;36.91;66.07;;
66747;Laerm;53658;50.742;10.864;2022-07-15T00:17:17;40.40;37.12;66.67;;
66747;Laerm;53658;50.742;10.864;2022-07-15T00:19:43;43.20;37.17;74.89;;
66747;Laerm;53658;50.742;10.864;2022-07-15T00:22:09;42.79;36.69;75.49;;
66747;Laerm;53658;50.742;10.864;2022-07-15T00:24:35;40.41;36.98;65.44;;
66747;Laerm;53658;50.742;10.864;2022-07-15T00:27:00;40.55;36.20;68.22;;
66747;Laerm;53658;50.742;10.864;2022-07-15T00:29:29;39.81;36.45;49.72;;
66747;Laerm;53658;50.742;10.864;2022-07-15T00:31:54;40.28;35.94;65.32;;
66747;Laerm;53658;50.742;10.864;2022-07-15T00:34:21;40.28;36.91;67.25;;
66747;Laerm;53658;50.742;10.864;2022-07-15T00:36:47;39.68;36.91;43.49;;
66747;Laerm;53658;50.742;10.864;2022-07-15T00:39:14;40.27;37.12;52.31;;
66747;Laerm;53658;50.742;10.864;2022-07-15T00:41:42;44.60;35.66;78.94;;
66747;Laerm;53658;50.742;10.864;2022-07-15T00:44:08;40.14;36.91;55.00;;
66747;Laerm;53658;50.742;10.864;2022-07-15T00:46:35;41.43;36.91;72.25;;
66747;Laerm;53658;50.742;10.864;2022-07-15T00:49:03;39.93;37.12;42.41;;
66747;Laerm;53658;50.742;10.864;2022-07-15T00:51:56;41.18;36.91;71.18;;
66747;Laerm;53658;50.742;10.864;2022-07-15T00:54:27;40.18;37.12;42.47;;
66747;Laerm;53658;50.742;10.864;2022-07-15T00:56:56;39.82;36.69;41.96;;
66747;Laerm;53658;50.742;10.864;2022-07-15T00:59:29;40.58;36.69;63.12;;
66747;Laerm;53658;50.742;10.864;2022-07-15T01:01:57;40.07;37.12;42.16;;
66747;Laerm;53658;50.742;10.864;2022-07-15T01:04:24;41.49;34.69;70.29;;
66747;Laerm;53658;50.742;10.864;2022-07-15T01:06:50;40.13;37.32;43.72;;
66747;Laerm;53658;50.742;10.864;2022-07-15T01:09:16;41.50;37.52;69.12;;
66747;Laerm;53658;50.742;10.864;2022-07-15T01:11:42;40.14;36.91;42.22;;
66747;Laerm;53658;50.742;10.864;2022-07-15T01:14:08;40.35;37.12;61.38;;
66747;Laerm;53658;50.742;10.864;2022-07-15T01:16:34;40.28;36.69;51.75;;
66747;Laerm;53658;50.742;10.864;2022-07-15T01:19:00;41.83;37.12;73.06;;
66747;Laerm;53658;50.742;10.864;2022-07-15T01:21:33;40.21;36.69;57.86;;
66747;Laerm;53658;50.742;10.864;2022-07-15T01:24:00;40.53;36.45;63.05;;
66747;Laerm;53658;50.742;10.864;2022-07-15T01:26:37;41.57;34.69;72.72;;
66747;Laerm;53658;50.742;10.864;2022-07-15T01:29:03;39.82;36.69;42.16;;
66747;Laerm;53658;50.742;10.864;2022-07-15T01:31:28;39.65;37.12;44.43;;
66747;Laerm;53658;50.742;10.864;2022-07-15T01:33:55;39.94;36.69;42.53;;
66747;Laerm;53658;50.742;10.864;2022-07-15T01:36:22;40.05;36.91;42.41;;
66747;Laerm;53658;50.742;10.864;2022-07-15T01:38:55;40.30;37.12;60.96;;
66747;Laerm;53658;50.742;10.864;2022-07-15T01:41:22;39.95;36.91;44.62;;
66747;Laerm;53658;50.742;10.864;2022-07-15T01:43:49;44.70;37.32;78.98;;
66747;Laerm;53658;50.742;10.864;2022-07-15T01:46:15;40.54;37.52;45.63;;
66747;Laerm;53658;50.742;10.864;2022-07-15T01:48:42;40.31;37.32;42.98;;
66747;Laerm;53658;50.742;10.864;2022-07-15T01:51:39;40.48;37.52;44.47;;
66747;Laerm;53658;50.742;10.864;2022-07-15T01:54:05;40.83;37.32;66.27;;
66747;Laerm;53658;50.742;10.864;2022-07-15T01:56:31;40.27;37.32;42.22;;
66747;Laerm;53658;50.742;10.864;2022-07-15T01:58:57;40.40;37.52;42.47;;
66747;Laerm;53658;50.742;10.864;2022-07-15T02:01:23;40.43;37.52;42.98;;
66747;Laerm;53658;50.742;10.864;2022-07-15T02:03:49;42.05;36.20;72.29;;
66747;Laerm;53658;50.742;10.864;2022-07-15T02:06:15;41.83;36.91;70.33;;
66747;Laerm;53658;50.742;10.864;2022-07-15T02:08:42;40.96;37.70;43.58;;
66747;Laerm;53658;50.742;10.864;2022-07-15T02:11:12;40.77;37.88;44.15;;
66747;Laerm;53658;50.742;10.864;2022-07-15T02:13:38;40.78;37.52;42.98;;
66747;Laerm;53658;50.742;10.864;2022-07-15T02:16:04;41.09;37.12;67.76;;
66747;Laerm;53658;50.742;10.864;2022-07-15T02:18:30;41.10;36.45;69.43;;
66747;Laerm;53658;50.742;10.864;2022-07-15T02:20:55;40.11;36.69;43.09;;
66747;Laerm;53658;50.742;10.864;2022-07-15T02:23:22;40.16;37.32;42.82;;
66747;Laerm;53658;50.742;10.864;2022-07-15T02:25:47;40.46;37.12;45.45;;
66747;Laerm;53658;50.742;10.864;2022-07-15T02:28:13;40.56;36.45;44.03;;
66747;Laerm;53658;50.742;10.864;2022-07-15T02:30:40;42.68;37.32;73.74;;
66747;Laerm;53658;50.742;10.864;2022-07-15T02:33:07;40.92;36.69;60.10;;
66747;Laerm;53658;50.742;10.864;2022-07-15T02:35:34;40.50;36.20;43.90;;
66747;Laerm;53658;50.742;10.864;2022-07-15T02:38:00;40.28;36.69;44.54;;
66747;Laerm;53658;50.742;10.864;2022-07-15T02:40:28;40.26;36.69;56.84;;
66747;Laerm;53658;50.742;10.864;2022-07-15T02:42:58;40.43;36.91;46.13;;
66747;Laerm;53658;50.742;10.864;2022-07-15T02:45:29;40.44;37.12;44.58;;
66747;Laerm;53658;50.742;10.864;2022-07-15T02:47:56;40.55;36.91;44.07;;
66747;Laerm;53658;50.742;10.864;2022-07-15T02:50:31;40.15;36.45;43.77;;
66747;Laerm;53658;50.742;10.864;2022-07-15T02:52:57;40.21;37.12;45.17;;
66747;Laerm;53658;50.742;10.864;2022-07-15T02:55:23;40.17;36.91;45.57;;
66747;Laerm;53658;50.742;10.864;2022-07-15T02:57:49;42.10;32.93;71.88;;
66747;Laerm;53658;50.742;10.864;2022-07-15T03:00:17;40.11;36.69;60.51;;
66747;Laerm;53658;50.742;10.864;2022-07-15T03:02:48;41.49;37.32;69.16;;
66747;Laerm;53658;50.742;10.864;2022-07-15T03:05:15;41.74;37.12;66.28;;
66747;Laerm;53658;50.742;10.864;2022-07-15T03:07:43;41.81;36.69;72.60;;
66747;Laerm;53658;50.742;10.864;2022-07-15T03:10:10;40.50;36.69;64.06;;
66747;Laerm;53658;50.742;10.864;2022-07-15T03:12:37;51.67;36.69;87.26;;
66747;Laerm;53658;50.742;10.864;2022-07-15T03:15:05;51.16;35.36;86.52;;
66747;Laerm;53658;50.742;10.864;2022-07-15T03:17:34;47.00;35.36;76.90;;
66747;Laerm;53658;50.742;10.864;2022-07-15T03:20:01;45.47;35.04;78.81;;
66747;Laerm;53658;50.742;10.864;2022-07-15T03:22:29;56.01;30.89;85.57;;
66747;Laerm;53658;50.742;10.864;2022-07-15T03:24:55;59.67;34.31;86.12;;
66747;Laerm;53658;50.742;10.864;2022-07-15T03:27:21;55.29;34.69;82.18;;
66747;Laerm;53658;50.742;10.864;2022-07-15T03:29:48;50.88;32.35;82.20;;
66747;Laerm;53658;50.742;10.864;2022-07-15T03:32:15;47.49;32.35;78.15;;
66747;Laerm;53658;50.742;10.864;2022-07-15T03:34:42;45.65;35.59;79.11;;
66747;Laerm;53658;50.742;10.864;2022-07-15T03:37:09;42.56;35.36;72.01;;
66747;Laerm;53658;50.742;10.864;2022-07-15T03:39:35;48.29;30.89;80.52;;
66747;Laerm;53658;50.742;10.864;2022-07-15T03:42:01;54.77;31.68;83.32;;
66747;Laerm;53658;50.742;10.864;2022-07-15T03:44:27;39.03;35.36;49.18;;
66747;Laerm;53658;50.742;10.864;2022-07-15T03:46:53;38.96;35.94;41.38;;
66747;Laerm;53658;50.742;10.864;2022-07-15T03:49:19;38.96;36.20;41.89;;
66747;Laerm;53658;50.742;10.864;2022-07-15T03:51:46;39.46;35.36;64.14;;
66747;Laerm;53658;50.742;10.864;2022-07-15T03:54:13;40.78;35.04;68.41;;
66747;Laerm;53658;50.742;10.864;2022-07-15T03:56:43;43.92;29.92;73.13;;
66747;Laerm;53658;50.742;10.864;2022-07-15T03:59:13;41.36;30.89;70.65;;
66747;Laerm;53658;50.742;10.864;2022-07-15T04:01:40;44.32;34.31;77.69;;
66747;Laerm;53658;50.742;10.864;2022-07-15T04:04:06;45.47;32.93;76.64;;
66747;Laerm;53658;50.742;10.864;2022-07-15T04:06:31;44.08;35.66;78.74;;
66747;Laerm;53658;50.742;10.864;2022-07-15T04:08:59;38.88;35.66;41.06;;
66747;Laerm;53658;50.742;10.864;2022-07-15T04:11:25;44.96;35.04;78.00;;
66747;Laerm;53658;50.742;10.864;2022-07-15T04:13:51;38.94;34.31;41.68;;
66747;Laerm;53658;50.742;10.864;2022-07-15T04:16:18;38.84;35.66;41.14;;
66747;Laerm;53658;50.742;10.864;2022-07-15T04:18:46;38.90;35.36;41.14;;
66747;Laerm;53658;50.742;10.864;2022-07-15T04:21:12;38.88;35.66;41.82;;
66747;Laerm;53658;50.742;10.864;2022-07-15T04:23:39;38.84;35.94;41.06;;
66747;Laerm;53658;50.742;10.864;2022-07-15T04:26:08;38.82;35.66;41.06;;
66747;Laerm;53658;50.742;10.864;2022-07-15T04:28:34;48.48;32.35;83.13;;
66747;Laerm;53658;50.742;10.864;2022-07-15T04:31:01;47.86;34.69;80.58;;
66747;Laerm;53658;50.742;10.864;2022-07-15T04:33:35;38.86;35.36;42.82;;
66747;Laerm;53658;50.742;10.864;2022-07-15T04:36:01;47.69;35.94;80.87;;
66747;Laerm;53658;50.742;10.864;2022-07-15T04:38:27;48.04;29.92;78.84;;
66747;Laerm;53658;50.742;10.864;2022-07-15T04:40:57;45.97;34.31;78.53;;
66747;Laerm;53658;50.742;10.864;2022-07-15T04:43:24;53.05;35.36;84.69;;
66747;Laerm;53658;50.742;10.864;2022-07-15T04:45:51;46.72;32.93;81.23;;
66747;Laerm;53658;50.742;10.864;2022-07-15T04:48:19;49.88;32.93;82.29;;
66747;Laerm;53658;50.742;10.864;2022-07-15T04:51:05;49.79;31.68;79.82;;
66747;Laerm;53658;50.742;10.864;2022-07-15T04:53:31;48.90;35.66;80.59;;
66747;Laerm;53658;50.742;10.864;2022-07-15T04:55:57;46.32;33.90;78.17;;
66747;Laerm;53658;50.742;10.864;2022-07-15T04:58:23;47.91;34.69;77.28;;
66747;Laerm;53658;50.742;10.864;2022-07-15T05:00:49;49.23;35.66;78.14;;
66747;Laerm;53658;50.742;10.864;2022-07-15T05:03:16;51.10;33.44;81.55;;
66747;Laerm;53658;50.742;10.864;2022-07-15T05:05:41;52.34;31.68;86.16;;
66747;Laerm;53658;50.742;10.864;2022-07-15T05:08:09;47.29;35.04;77.31;;
66747;Laerm;53658;50.742;10.864;2022-07-15T05:10:41;51.52;34.69;80.33;;
66747;Laerm;53658;50.742;10.864;2022-07-15T05:13:07;50.40;32.58;78.83;;
66747;Laerm;53658;50.742;10.864;2022-07-15T05:15:33;50.60;30.89;73.61;;
66747;Laerm;53658;50.742;10.864;2022-07-15T05:18:09;48.64;32.93;73.94;;
66747;Laerm;53658;50.742;10.864;2022-07-15T05:20:36;49.04;35.36;76.03;;
66747;Laerm;53658;50.742;10.864;2022-07-15T05:23:01;49.46;31.68;81.08;;
66747;Laerm;53658;50.742;10.864;2022-07-15T05:25:33;50.16;35.04;74.14;;
66747;Laerm;53658;50.742;10.864;2022-07-15T05:27:59;47.82;33.44;78.82;;
66747;Laerm;53658;50.742;10.864;2022-07-15T05:30:25;44.94;35.36;75.22;;
66747;Laerm;53658;50.742;10.864;2022-07-15T05:32:55;43.90;36.45;73.75;;
66747;Laerm;53658;50.742;10.864;2022-07-15T05:35:22;47.01;34.31;74.62;;
66747;Laerm;53658;50.742;10.864;2022-07-15T05:37:48;43.85;35.36;71.90;;
66747;Laerm;53658;50.742;10.864;2022-07-15T05:40:21;44.75;34.69;73.16;;
66747;Laerm;53658;50.742;10.864;2022-07-15T05:42:51;45.01;34.31;73.78;;
66747;Laerm;53658;50.742;10.864;2022-07-15T05:45:17;45.81;36.20;72.61;;
66747;Laerm;53658;50.742;10.864;2022-07-15T05:47:50;47.52;35.66;74.66;;
66747;Laerm;53658;50.742;10.864;2022-07-15T05:50:19;45.54;35.94;74.05;;
66747;Laerm;53658;50.742;10.864;2022-07-15T05:52:47;41.68;37.70;71.17;;
66747;Laerm;53658;50.742;10.864;2022-07-15T05:55:13;42.11;35.36;66.79;;
66747;Laerm;53658;50.742;10.864;2022-07-15T05:57:39;40.99;32.93;65.54;;
66747;Laerm;53658;50.742;10.864;2022-07-15T06:00:06;40.15;37.87;49.28;;
66747;Laerm;53658;50.742;10.864;2022-07-15T06:02:39;40.19;35.94;50.13;;
66747;Laerm;53658;50.742;10.864;2022-07-15T06:05:08;40.26;37.32;55.67;;
66747;Laerm;53658;50.742;10.864;2022-07-15T06:07:37;40.34;35.04;56.74;;
66747;Laerm;53658;50.742;10.864;2022-07-15T06:10:04;40.26;37.32;53.33;;
66747;Laerm;53658;50.742;10.864;2022-07-15T06:12:32;40.31;37.70;52.06;;
66747;Laerm;53658;50.742;10.864;2022-07-15T06:14:58;40.47;37.52;55.98;;
66747;Laerm;53658;50.742;10.864;2022-07-15T06:17:25;40.36;37.88;53.33;;
66747;Laerm;53658;50.742;10.864;2022-07-15T06:19:53;40.33;37.52;46.28;;
66747;Laerm;53658;50.742;10.864;2022-07-15T06:22:19;40.28;37.88;45.54;;
66747;Laerm;53658;50.742;10.864;2022-07-15T06:24:45;40.27;37.70;43.86;;
66747;Laerm;53658;50.742;10.864;2022-07-15T06:27:10;39.89;37.12;42.53;;
66747;Laerm;53658;50.742;10.864;2022-07-15T06:29:36;39.89;37.12;42.29;;
66747;Laerm;53658;50.742;10.864;2022-07-15T06:32:02;39.85;35.94;43.51;;
66747;Laerm;53658;50.742;10.864;2022-07-15T06:34:28;39.50;36.45;41.61;;
66747;Laerm;53658;50.742;10.864;2022-07-15T06:36:53;39.34;35.66;41.75;;
66747;Laerm;53658;50.742;10.864;2022-07-15T06:39:19;39.43;35.36;41.53;;
66747;Laerm;53658;50.742;10.864;2022-07-15T06:41:46;39.49;36.45;41.61;;
66747;Laerm;53658;50.742;10.864;2022-07-15T06:44:14;39.50;36.45;41.82;;
66747;Laerm;53658;50.742;10.864;2022-07-15T06:46:45;39.56;37.12;41.75;;
66747;Laerm;53658;50.742;10.864;2022-07-15T06:49:11;39.66;36.45;41.61;;
66747;Laerm;53658;50.742;10.864;2022-07-15T06:51:36;39.67;36.91;41.53;;
66747;Laerm;53658;50.742;10.864;2022-07-15T06:54:02;39.67;35.36;41.61;;
66747;Laerm;53658;50.742;10.864;2022-07-15T06:56:31;39.54;36.20;41.68;;
66747;Laerm;53658;50.742;10.864;2022-07-15T06:58:56;39.58;36.69;41.82;;
66747;Laerm;53658;50.742;10.864;2022-07-15T07:01:22;39.54;36.45;41.68;;
66747;Laerm;53658;50.742;10.864;2022-07-15T07:03:48;39.62;36.69;41.89;;
66747;Laerm;53658;50.742;10.864;2022-07-15T07:06:14;39.61;36.20;41.75;;
66747;Laerm;53658;50.742;10.864;2022-07-15T07:08:40;39.48;36.20;41.89;;
66747;Laerm;53658;50.742;10.864;2022-07-15T07:11:06;39.52;36.45;41.61;;
66747;Laerm;53658;50.742;10.864;2022-07-15T07:13:32;39.60;34.69;41.75;;
66747;Laerm;53658;50.742;10.864;2022-07-15T07:15:57;39.65;36.69;41.96;;
66747;Laerm;53658;50.742;10.864;2022-07-15T07:18:25;39.69;36.69;41.75;;
66747;Laerm;53658;50.742;10.864;2022-07-15T07:20:50;39.71;37.12;41.68;;
66747;Laerm;53658;50.742;10.864;2022-07-15T07:23:16;39.71;36.69;41.53;;
66747;Laerm;53658;50.742;10.864;2022-07-15T07:25:43;39.57;36.91;41.75;;
66747;Laerm;53658;50.742;10.864;2022-07-15T07:28:08;39.56;36.45;42.09;;
66747;Laerm;53658;50.742;10.864;2022-07-15T07:30:34;39.61;36.91;41.68;;
66747;Laerm;53658;50.742;10.864;2022-07-15T07:33:00;39.66;36.91;41.75;;
66747;Laerm;53658;50.742;10.864;2022-07-15T07:35:26;39.67;36.69;41.75;;
66747;Laerm;53658;50.742;10.864;2022-07-15T07:37:53;39.69;37.12;41.68;;
66747;Laerm;53658;50.742;10.864;2022-07-15T07:40:19;39.70;37.32;41.61;;
66747;Laerm;53658;50.742;10.864;2022-07-15T07:42:45;39.67;36.91;41.53;;
66747;Laerm;53658;50.742;10.864;2022-07-15T07:45:11;39.70;36.45;41.68;;
66747;Laerm;53658;50.742;10.864;2022-07-15T07:47:37;39.68;36.91;41.75;;
66747;Laerm;53658;50.742;10.864;2022-07-15T07:50:07;39.71;36.56;41.96;;
66747;Laerm;53658;50.742;10.864;2022-07-15T07:52:34;39.70;36.91;41.82;;
66747;Laerm;53658;50.742;10.864;2022-07-15T07:54:59;39.71;36.69;41.46;;
66747;Laerm;53658;50.742;10.864;2022-07-15T07:57:26;39.56;36.20;41.89;;
66747;Laerm;53658;50.742;10.864;2022-07-15T07:59:52;39.59;36.69;41.89;;
66747;Laerm;53658;50.742;10.864;2022-07-15T08:02:18;39.68;37.12;41.68;;
66747;Laerm;53658;50.742;10.864;2022-07-15T08:04:44;39.51;36.69;41.68;;
66747;Laerm;53658;50.742;10.864;2022-07-15T08:07:10;39.36;36.69;41.53;;
66747;Laerm;53658;50.742;10.864;2022-07-15T08:09:37;39.40;35.94;41.46;;
66747;Laerm;53658;50.742;10.864;2022-07-15T08:12:03;39.38;36.45;41.53;;
66747;Laerm;53658;50.742;10.864;2022-07-15T08:14:29;39.45;36.69;41.68;;
66747;Laerm;53658;50.742;10.864;2022-07-15T08:16:55;39.42;36.20;45.77;;
66747;Laerm;53658;50.742;10.864;2022-07-15T08:19:20;39.42;35.94;41.68;;
66747;Laerm;53658;50.742;10.864;2022-07-15T08:21:46;39.48;35.94;41.89;;
66747;Laerm;53658;50.742;10.864;2022-07-15T08:24:12;39.59;36.45;41.53;;
66747;Laerm;53658;50.742;10.864;2022-07-15T08:26:38;39.63;36.45;41.75;;
66747;Laerm;53658;50.742;10.864;2022-07-15T08:29:05;39.64;36.69;41.75;;
66747;Laerm;53658;50.742;10.864;2022-07-15T08:31:32;39.92;36.69;42.29;;
66747;Laerm;53658;50.742;10.864;2022-07-15T08:33:58;39.87;36.91;41.68;;
66747;Laerm;53658;50.742;10.864;2022-07-15T08:36:24;39.81;37.12;42.03;;
66747;Laerm;53658;50.742;10.864;2022-07-15T08:38:50;39.66;35.94;41.75;;
66747;Laerm;53658;50.742;10.864;2022-07-15T08:41:15;39.49;36.20;41.68;;
66747;Laerm;53658;50.742;10.864;2022-07-15T08:43:41;39.46;36.45;41.61;;
66747;Laerm;53658;50.742;10.864;2022-07-15T08:46:09;39.57;36.69;41.89;;
66747;Laerm;53658;50.742;10.864;2022-07-15T08:48:36;39.41;36.56;41.46;;
66747;Laerm;53658;50.742;10.864;2022-07-15T08:51:05;39.34;34.69;41.53;;
66747;Laerm;53658;50.742;10.864;2022-07-15T08:53:33;39.19;35.66;41.75;;
66747;Laerm;53658;50.742;10.864;2022-07-15T08:56:00;39.22;35.04;41.61;;
66747;Laerm;53658;50.742;10.864;2022-07-15T08:58:26;39.27;35.66;41.30;;
66747;Laerm;53658;50.742;10.864;2022-07-15T09:00:52;39.31;35.94;41.38;;
66747;Laerm;53658;50.742;10.864;2022-07-15T09:03:18;39.45;36.45;41.89;;
66747;Laerm;53658;50.742;10.864;2022-07-15T09:05:44;39.54;35.94;53.96;;
66747;Laerm;53658;50.742;10.864;2022-07-15T09:08:12;39.23;35.94;41.46;;
66747;Laerm;53658;50.742;10.864;2022-07-15T09:10:54;39.19;35.04;41.30;;
66747;Laerm;53658;50.742;10.864;2022-07-15T09:16:06;38.68;35.04;41.06;;
66747;Laerm;53658;50.742;10.864;2022-07-15T09:18:40;38.47;33.90;40.98;;
66747;Laerm;53658;50.742;10.864;2022-07-15T09:23:40;38.43;33.90;40.80;;
66747;Laerm;53658;50.742;10.864;2022-07-15T09:28:56;37.81;32.93;40.54;;
66747;Laerm;53658;50.742;10.864;2022-07-15T09:31:35;37.86;32.93;40.80;;
66747;Laerm;53658;50.742;10.864;2022-07-15T09:34:23;37.76;32.93;41.14;;
66747;Laerm;53658;50.742;10.864;2022-07-15T09:36:51;37.66;32.35;40.71;;
66747;Laerm;53658;50.742;10.864;2022-07-15T09:39:20;37.66;30.89;40.45;;
66747;Laerm;53658;50.742;10.864;2022-07-15T09:41:48;37.84;31.68;41.14;;
66747;Laerm;53658;50.742;10.864;2022-07-15T09:44:17;37.69;32.35;40.43;;
66747;Laerm;53658;50.742;10.864;2022-07-15T09:47:19;37.67;29.92;40.98;;
66747;Laerm;53658;50.742;10.864;2022-07-15T09:49:45;37.25;26.91;40.53;;
66747;Laerm;53658;50.742;10.864;2022-07-15T09:52:13;37.41;29.92;41.75;;
66747;Laerm;53658;50.742;10.864;2022-07-15T09:54:43;37.31;31.68;40.23;;
66747;Laerm;53658;50.742;10.864;2022-07-15T09:57:14;37.51;31.68;40.98;;
66747;Laerm;53658;50.742;10.864;2022-07-15T09:59:42;37.73;32.93;41.30;;
66747;Laerm;53658;50.742;10.864;2022-07-15T10:02:09;37.74;32.35;40.53;;
66747;Laerm;53658;50.742;10.864;2022-07-15T10:04:35;37.66;32.35;40.43;;
66747;Laerm;53658;50.742;10.864;2022-07-15T10:07:02;37.65;32.35;40.33;;
66747;Laerm;53658;50.742;10.864;2022-07-15T10:09:35;37.72;32.35;40.53;;
66747;Laerm;53658;50.742;10.864;2022-07-15T10:12:23;37.72;28.67;40.43;;
66747;Laerm;53658;50.742;10.864;2022-07-15T10:28:13;38.15;33.90;40.98;;
66747;Laerm;53658;50.742;10.864;2022-07-15T10:30:40;38.14;33.44;40.53;;
66747;Laerm;53658;50.742;10.864;2022-07-15T10:33:19;38.14;32.35;40.71;;
66747;Laerm;53658;50.742;10.864;2022-07-15T10:35:53;37.93;33.44;40.62;;
66747;Laerm;53658;50.742;10.864;2022-07-15T10:38:36;37.75;32.93;40.80;;
66747;Laerm;53658;50.742;10.864;2022-07-15T10:41:09;37.82;33.44;41.14;;
66747;Laerm;53658;50.742;10.864;2022-07-15T10:43:51;37.81;32.93;40.71;;
66747;Laerm;53658;50.742;10.864;2022-07-15T10:48:52;37.80;32.93;40.62;;
66747;Laerm;53658;50.742;10.864;2022-07-15T10:51:41;37.67;31.68;40.71;;
66747;Laerm;53658;50.742;10.864;2022-07-15T10:56:45;37.46;30.89;40.43;;
66747;Laerm;53658;50.742;10.864;2022-07-15T10:59:19;37.34;30.89;40.23;;
66747;Laerm;53658;50.742;10.864;2022-07-15T11:02:10;37.63;32.93;41.53;;
66747;Laerm;53658;50.742;10.864;2022-07-15T11:04:33;37.20;30.89;40.33;;
66747;Laerm;53658;50.742;10.864;2022-07-15T11:14:55;37.28;29.92;40.23;;
66747;Laerm;53658;50.742;10.864;2022-07-15T11:17:44;37.47;31.68;40.33;;
66747;Laerm;53658;50.742;10.864;2022-07-15T11:20:12;37.38;30.89;41.30;;
66747;Laerm;53658;50.742;10.864;2022-07-15T11:22:44;37.16;29.92;40.03;;
66747;Laerm;53658;50.742;10.864;2022-07-15T11:25:36;36.98;28.67;40.33;;
66747;Laerm;53658;50.742;10.864;2022-07-15T11:28:29;37.02;29.92;40.98;;
66747;Laerm;53658;50.742;10.864;2022-07-15T11:30:55;36.91;29.92;40.13;;
66747;Laerm;53658;50.742;10.864;2022-07-15T11:33:23;36.86;29.92;40.98;;
66747;Laerm;53658;50.742;10.864;2022-07-15T11:36:01;36.95;29.92;41.81;;
66747;Laerm;53658;50.742;10.864;2022-07-15T11:38:29;36.98;29.92;40.03;;
66747;Laerm;53658;50.742;10.864;2022-07-15T11:41:02;37.16;30.89;40.98;;
66747;Laerm;53658;50.742;10.864;2022-07-15T11:44:09;37.29;31.68;40.89;;
66747;Laerm;53658;50.742;10.864;2022-07-15T11:46:55;37.44;30.89;40.23;;
66747;Laerm;53658;50.742;10.864;2022-07-15T11:49:32;37.46;29.92;40.53;;
66747;Laerm;53658;50.742;10.864;2022-07-15T11:52:01;37.46;32.93;40.43;;
66747;Laerm;53658;50.742;10.864;2022-07-15T11:54:27;37.52;31.68;41.82;;
66747;Laerm;53658;50.742;10.864;2022-07-15T11:56:54;37.39;32.35;41.06;;
66747;Laerm;53658;50.742;10.864;2022-07-15T11:59:20;37.31;31.68;40.43;;
66747;Laerm;53658;50.742;10.864;2022-07-15T12:01:46;37.21;29.92;40.43;;
66747;Laerm;53658;50.742;10.864;2022-07-15T12:04:12;37.18;30.89;40.80;;
66747;Laerm;53658;50.742;10.864;2022-07-15T12:06:38;37.07;30.89;40.03;;
66747;Laerm;53658;50.742;10.864;2022-07-15T12:09:05;37.00;29.92;40.23;;
66747;Laerm;53658;50.742;10.864;2022-07-15T12:11:38;36.96;30.89;40.62;;
66747;Laerm;53658;50.742;10.864;2022-07-15T12:14:11;37.52;30.89;42.41;;
66747;Laerm;53658;50.742;10.864;2022-07-15T12:19:08;37.24;30.54;40.33;;
66747;Laerm;53658;50.742;10.864;2022-07-15T12:21:38;37.24;31.68;40.23;;
66747;Laerm;53658;50.742;10.864;2022-07-15T12:24:11;37.16;29.92;40.43;;
66747;Laerm;53658;50.742;10.864;2022-07-15T12:26:58;37.11;29.92;40.43;;
66747;Laerm;53658;50.742;10.864;2022-07-15T12:29:28;37.22;31.68;40.62;;
66747;Laerm;53658;50.742;10.864;2022-07-15T12:31:57;37.12;31.68;40.13;;
66747;Laerm;53658;50.742;10.864;2022-07-15T12:37:26;37.19;30.89;40.71;;
66747;Laerm;53658;50.742;10.864;2022-07-15T12:40:10;37.05;28.67;40.23;;
66747;Laerm;53658;50.742;10.864;2022-07-15T12:42:47;37.11;29.92;40.36;;
66747;Laerm;53658;50.742;10.864;2022-07-15T12:50:23;37.37;31.68;40.33;;
66747;Laerm;53658;50.742;10.864;2022-07-15T12:52:49;37.36;31.68;41.61;;
66747;Laerm;53658;50.742;10.864;2022-07-15T12:55:21;37.55;31.68;42.47;;
66747;Laerm;53658;50.742;10.864;2022-07-15T12:57:49;37.58;30.89;42.09;;
66747;Laerm;53658;50.742;10.864;2022-07-15T13:00:22;37.60;32.35;40.98;;
66747;Laerm;53658;50.742;10.864;2022-07-15T13:03:16;37.40;30.89;40.13;;
66747;Laerm;53658;50.742;10.864;2022-07-15T13:05:45;37.50;29.92;41.68;;
66747;Laerm;53658;50.742;10.864;2022-07-15T13:08:13;37.46;32.35;40.23;;
66747;Laerm;53658;50.742;10.864;2022-07-15T13:10:42;37.40;30.89;40.33;;
66747;Laerm;53658;50.742;10.864;2022-07-15T13:13:09;37.39;29.92;40.43;;
66747;Laerm;53658;50.742;10.864;2022-07-15T13:15:35;37.50;30.89;41.38;;
66747;Laerm;53658;50.742;10.864;2022-07-15T13:18:01;37.38;31.68;40.62;;
66747;Laerm;53658;50.742;10.864;2022-07-15T13:20:27;37.30;29.92;40.23;;
66747;Laerm;53658;50.742;10.864;2022-07-15T13:22:54;37.31;31.68;40.98;;
66747;Laerm;53658;50.742;10.864;2022-07-15T13:25:20;37.28;31.68;40.53;;
66747;Laerm;53658;50.742;10.864;2022-07-15T13:27:46;37.37;31.68;40.62;;
66747;Laerm;53658;50.742;10.864;2022-07-15T13:30:13;37.47;31.68;40.53;;
66747;Laerm;53658;50.742;10.864;2022-07-15T13:32:40;37.29;32.35;40.23;;
66747;Laerm;53658;50.742;10.864;2022-07-15T13:35:08;37.15;31.68;40.23;;
66747;Laerm;53658;50.742;10.864;2022-07-15T13:37:34;37.10;30.89;40.53;;
66747;Laerm;53658;50.742;10.864;2022-07-15T13:40:01;37.29;30.89;41.61;;
66747;Laerm;53658;50.742;10.864;2022-07-15T13:42:26;37.16;29.92;40.43;;
66747;Laerm;53658;50.742;10.864;2022-07-15T13:44:55;37.24;31.68;40.62;;
66747;Laerm;53658;50.742;10.864;2022-07-15T13:47:21;37.44;30.89;42.98;;
66747;Laerm;53658;50.742;10.864;2022-07-15T13:49:46;37.32;31.68;40.71;;
66747;Laerm;53658;50.742;10.864;2022-07-15T13:52:31;37.29;30.89;40.43;;
66747;Laerm;53658;50.742;10.864;2022-07-15T13:54:57;37.15;29.92;40.13;;
66747;Laerm;53658;50.742;10.864;2022-07-15T13:57:23;37.05;30.89;41.22;;
66747;Laerm;53658;50.742;10.864;2022-07-15T13:59:48;36.96;29.92;40.80;;
66747;Laerm;53658;50.742;10.864;2022-07-15T14:02:14;36.98;23.90;39.92;;
66747;Laerm;53658;50.742;10.864;2022-07-15T14:04:40;37.02;30.89;40.33;;
66747;Laerm;53658;50.742;10.864;2022-07-15T14:07:06;37.03;30.89;40.03;;
66747;Laerm;53658;50.742;10.864;2022-07-15T14:09:35;37.13;29.92;41.06;;
66747;Laerm;53658;50.742;10.864;2022-07-15T14:12:01;37.13;30.89;40.23;;
66747;Laerm;53658;50.742;10.864;2022-07-15T14:14:27;37.16;30.89;40.13;;
66747;Laerm;53658;50.742;10.864;2022-07-15T14:16:53;37.26;29.92;40.62;;
66747;Laerm;53658;50.742;10.864;2022-07-15T14:19:19;37.19;31.68;41.75;;
66747;Laerm;53658;50.742;10.864;2022-07-15T14:21:45;37.19;29.92;41.46;;
66747;Laerm;53658;50.742;10.864;2022-07-15T14:24:11;37.05;30.89;41.22;;
66747;Laerm;53658;50.742;10.864;2022-07-15T14:26:37;36.89;29.92;40.13;;